sensor_id;sensor_type;location;lat;lon;timestamp;temperature;humidity
21425;DHT22;10873;51.132;16.848;2023-06-19T01:09:39;27.60;59.00
21425;DHT22;10873;51.132;16.848;2023-06-19T01:12:13;27.60;59.30
21425;DHT22;10873;51.132;16.848;2023-06-19T01:14:48;27.60;59.00
21425;DHT22;10873;51.132;16.848;2023-06-19T01:17:24;27.60;59.00
21425;DHT22;10873;51.132;16.848;2023-06-19T01:20:04;27.60;59.00
21425;DHT22;10873;51.132;16.848;2023-06-19T01:22:45;27.60;59.00
21425;DHT22;10873;51.132;16.848;2023-06-19T01:25:14;27.60;59.00
21425;DHT22;10873;51.132;16.848;2023-06-19T01:27:44;27.50;58.90
21425;DHT22;10873;51.132;16.848;2023-06-19T01:30:15;27.50;59.00
21425;DHT22;10873;51.132;16.848;2023-06-19T01:32:55;27.50;59.00
21425;DHT22;10873;51.132;16.848;2023-06-19T01:35:38;27.50;59.00
21425;DHT22;10873;51.132;16.848;2023-06-19T01:38:21;27.50;58.90
21425;DHT22;10873;51.132;16.848;2023-06-19T01:40:56;27.50;58.90
21425;DHT22;10873;51.132;16.848;2023-06-19T01:43:27;27.50;58.90
21425;DHT22;10873;51.132;16.848;2023-06-19T01:46:12;27.50;59.60
21425;DHT22;10873;51.132;16.848;2023-06-19T01:49:00;27.50;58.90
21425;DHT22;10873;51.132;16.848;2023-06-19T01:51:32;27.40;58.80
21425;DHT22;10873;51.132;16.848;2023-06-19T01:54:12;27.40;58.80
21425;DHT22;10873;51.132;16.848;2023-06-19T01:56:44;27.40;58.90
21425;DHT22;10873;51.132;16.848;2023-06-19T01:59:14;27.40;58.80
21425;DHT22;10873;51.132;16.848;2023-06-19T02:01:40;27.40;58.80
21425;DHT22;10873;51.132;16.848;2023-06-19T02:04:13;27.40;58.80
21425;DHT22;10873;51.132;16.848;2023-06-19T02:06:46;27.40;58.70
21425;DHT22;10873;51.132;16.848;2023-06-19T02:09:22;27.40;58.80
21425;DHT22;10873;51.132;16.848;2023-06-19T02:12:04;27.40;58.80
21425;DHT22;10873;51.132;16.848;2023-06-19T02:14:33;27.40;58.80
21425;DHT22;10873;51.132;16.848;2023-06-19T02:17:03;27.30;58.70
21425;DHT22;10873;51.132;16.848;2023-06-19T02:19:33;27.30;58.70
21425;DHT22;10873;51.132;16.848;2023-06-19T02:22:22;27.30;58.70
21425;DHT22;10873;51.132;16.848;2023-06-19T02:24:59;27.30;58.70
21425;DHT22;10873;51.132;16.848;2023-06-19T02:27:47;27.30;58.70
21425;DHT22;10873;51.132;16.848;2023-06-19T02:30:18;27.30;58.70
21425;DHT22;10873;51.132;16.848;2023-06-19T02:32:50;27.30;58.70
21425;DHT22;10873;51.132;16.848;2023-06-19T02:35:33;27.20;58.70
21425;DHT22;10873;51.132;16.848;2023-06-19T02:38:16;27.30;58.70
21425;DHT22;10873;51.132;16.848;2023-06-19T02:40:59;27.20;58.60
21425;DHT22;10873;51.132;16.848;2023-06-19T02:43:51;27.20;58.60
21425;DHT22;10873;51.132;16.848;2023-06-19T02:46:19;27.20;58.60
21425;DHT22;10873;51.132;16.848;2023-06-19T02:49:02;27.20;58.60
21425;DHT22;10873;51.132;16.848;2023-06-19T02:51:40;27.20;58.60
21425;DHT22;10873;51.132;16.848;2023-06-19T02:54:15;27.20;58.60
21425;DHT22;10873;51.132;16.848;2023-06-19T02:57:09;27.20;58.50
21425;DHT22;10873;51.132;16.848;2023-06-19T02:59:38;27.20;58.50
21425;DHT22;10873;51.132;16.848;2023-06-19T03:02:08;27.20;58.60
21425;DHT22;10873;51.132;16.848;2023-06-19T03:04:48;27.10;58.50
21425;DHT22;10873;51.132;16.848;2023-06-19T03:07:38;27.10;58.50
21425;DHT22;10873;51.132;16.848;2023-06-19T03:10:11;27.10;58.50
21425;DHT22;10873;51.132;16.848;2023-06-19T03:12:48;27.10;58.40
21425;DHT22;10873;51.132;16.848;2023-06-19T03:15:33;27.10;58.40
21425;DHT22;10873;51.132;16.848;2023-06-19T03:18:27;27.10;58.40
21425;DHT22;10873;51.132;16.848;2023-06-19T03:21:05;27.10;58.40
21425;DHT22;10873;51.132;16.848;2023-06-19T03:23:37;27.10;58.30
21425;DHT22;10873;51.132;16.848;2023-06-19T03:26:14;27.10;58.30
21425;DHT22;10873;51.132;16.848;2023-06-19T03:28:50;27.10;58.30
21425;DHT22;10873;51.132;16.848;2023-06-19T03:31:18;27.10;58.30
21425;DHT22;10873;51.132;16.848;2023-06-19T03:34:11;27.10;58.30
21425;DHT22;10873;51.132;16.848;2023-06-19T03:36:44;27.00;58.30
21425;DHT22;10873;51.132;16.848;2023-06-19T03:39:33;27.10;58.40
21425;DHT22;10873;51.132;16.848;2023-06-19T03:42:11;27.10;59.80
21425;DHT22;10873;51.132;16.848;2023-06-19T03:44:57;27.10;59.80
21425;DHT22;10873;51.132;16.848;2023-06-19T03:47:45;27.10;59.40
21425;DHT22;10873;51.132;16.848;2023-06-19T03:50:17;27.10;59.30
21425;DHT22;10873;51.132;16.848;2023-06-19T03:52:55;27.10;59.30
21425;DHT22;10873;51.132;16.848;2023-06-19T03:55:40;27.10;59.40
21425;DHT22;10873;51.132;16.848;2023-06-19T03:58:39;27.10;59.60
21425;DHT22;10873;51.132;16.848;2023-06-19T04:23:24;27.00;60.60
21425;DHT22;10873;51.132;16.848;2023-06-19T04:26:13;26.90;60.60
21425;DHT22;10873;51.132;16.848;2023-06-19T04:31:39;26.90;60.70
21425;DHT22;10873;51.132;16.848;2023-06-19T04:34:33;26.90;60.80
21425;DHT22;10873;51.132;16.848;2023-06-19T04:40:25;26.90;60.90
21425;DHT22;10873;51.132;16.848;2023-06-19T04:43:09;26.90;61.00
21425;DHT22;10873;51.132;16.848;2023-06-19T04:45:57;26.90;61.10
21425;DHT22;10873;51.132;16.848;2023-06-19T04:48:30;26.90;61.20
21425;DHT22;10873;51.132;16.848;2023-06-19T04:51:14;26.90;61.40
21425;DHT22;10873;51.132;16.848;2023-06-19T04:53:58;26.90;61.40
21425;DHT22;10873;51.132;16.848;2023-06-19T04:56:28;26.90;61.50
21425;DHT22;10873;51.132;16.848;2023-06-19T04:59:14;26.90;61.80
21425;DHT22;10873;51.132;16.848;2023-06-19T05:02:10;26.90;61.90
21425;DHT22;10873;51.132;16.848;2023-06-19T05:05:26;26.90;61.90
21425;DHT22;10873;51.132;16.848;2023-06-19T05:10:48;26.90;61.90
21425;DHT22;10873;51.132;16.848;2023-06-19T05:13:32;26.90;61.90
21425;DHT22;10873;51.132;16.848;2023-06-19T05:16:04;26.90;61.90
21425;DHT22;10873;51.132;16.848;2023-06-19T05:18:37;26.90;61.90
21425;DHT22;10873;51.132;16.848;2023-06-19T05:21:21;26.90;61.90
21425;DHT22;10873;51.132;16.848;2023-06-19T05:24:11;26.90;61.90
21425;DHT22;10873;51.132;16.848;2023-06-19T05:26:39;26.90;61.90
21425;DHT22;10873;51.132;16.848;2023-06-19T05:29:31;26.90;61.90
21425;DHT22;10873;51.132;16.848;2023-06-19T05:32:07;26.90;61.90
21425;DHT22;10873;51.132;16.848;2023-06-19T05:35:04;26.90;61.90
21425;DHT22;10873;51.132;16.848;2023-06-19T05:37:35;26.90;62.00
21425;DHT22;10873;51.132;16.848;2023-06-19T05:40:33;26.90;62.00
21425;DHT22;10873;51.132;16.848;2023-06-19T05:43:01;26.90;62.00
21425;DHT22;10873;51.132;16.848;2023-06-19T05:45:48;26.90;62.10
21425;DHT22;10873;51.132;16.848;2023-06-19T05:48:38;26.90;62.00
21425;DHT22;10873;51.132;16.848;2023-06-19T05:51:20;26.90;62.00
21425;DHT22;10873;51.132;16.848;2023-06-19T05:53:57;26.90;62.00
21425;DHT22;10873;51.132;16.848;2023-06-19T05:56:43;26.90;62.00
21425;DHT22;10873;51.132;16.848;2023-06-19T05:59:20;26.90;62.10
21425;DHT22;10873;51.132;16.848;2023-06-19T06:01:59;26.90;62.10
21425;DHT22;10873;51.132;16.848;2023-06-19T06:04:27;26.90;62.10
21425;DHT22;10873;51.132;16.848;2023-06-19T06:07:11;26.90;62.10
21425;DHT22;10873;51.132;16.848;2023-06-19T06:09:51;26.90;62.10
21425;DHT22;10873;51.132;16.848;2023-06-19T06:12:44;26.90;62.10
21425;DHT22;10873;51.132;16.848;2023-06-19T06:15:26;26.90;62.30
21425;DHT22;10873;51.132;16.848;2023-06-19T06:18:03;26.90;62.30
21425;DHT22;10873;51.132;16.848;2023-06-19T06:20:58;26.90;62.40
21425;DHT22;10873;51.132;16.848;2023-06-19T06:23:33;26.90;62.40
21425;DHT22;10873;51.132;16.848;2023-06-19T06:26:10;26.90;62.50
21425;DHT22;10873;51.132;16.848;2023-06-19T06:28:47;26.90;62.50
21425;DHT22;10873;51.132;16.848;2023-06-19T06:31:27;26.90;62.60
21425;DHT22;10873;51.132;16.848;2023-06-19T06:34:42;26.90;62.60
21425;DHT22;10873;51.132;16.848;2023-06-19T06:37:25;26.90;62.60
21425;DHT22;10873;51.132;16.848;2023-06-19T06:40:15;26.90;62.60
21425;DHT22;10873;51.132;16.848;2023-06-19T06:43:11;26.90;62.70
21425;DHT22;10873;51.132;16.848;2023-06-19T06:46:08;26.90;62.70
21425;DHT22;10873;51.132;16.848;2023-06-19T06:48:58;26.90;62.70
21425;DHT22;10873;51.132;16.848;2023-06-19T06:51:47;26.90;62.70
21425;DHT22;10873;51.132;16.848;2023-06-19T06:54:33;26.90;62.70
21425;DHT22;10873;51.132;16.848;2023-06-19T06:57:16;26.90;62.80
21425;DHT22;10873;51.132;16.848;2023-06-19T06:59:50;26.90;62.90
21425;DHT22;10873;51.132;16.848;2023-06-19T07:02:23;26.90;62.90
21425;DHT22;10873;51.132;16.848;2023-06-19T07:05:09;26.90;63.00
21425;DHT22;10873;51.132;16.848;2023-06-19T07:07:58;26.90;63.00
21425;DHT22;10873;51.132;16.848;2023-06-19T07:10:35;26.90;63.00
21425;DHT22;10873;51.132;16.848;2023-06-19T07:13:09;26.90;63.10
21425;DHT22;10873;51.132;16.848;2023-06-19T07:15:48;26.90;63.00
21425;DHT22;10873;51.132;16.848;2023-06-19T07:18:40;26.90;63.10
21425;DHT22;10873;51.132;16.848;2023-06-19T07:21:31;26.90;63.10
21425;DHT22;10873;51.132;16.848;2023-06-19T07:24:15;26.90;63.10
21425;DHT22;10873;51.132;16.848;2023-06-19T07:27:03;26.90;63.20
21425;DHT22;10873;51.132;16.848;2023-06-19T07:33:04;26.90;63.50
21425;DHT22;10873;51.132;16.848;2023-06-19T07:36:06;26.90;63.70
21425;DHT22;10873;51.132;16.848;2023-06-19T07:38:59;27.00;63.90
21425;DHT22;10873;51.132;16.848;2023-06-19T07:44:36;27.00;64.20
21425;DHT22;10873;51.132;16.848;2023-06-19T07:50:52;27.20;64.90
21425;DHT22;10873;51.132;16.848;2023-06-19T07:53:35;27.40;67.80
21425;DHT22;10873;51.132;16.848;2023-06-19T07:56:43;27.70;68.40
21425;DHT22;10873;51.132;16.848;2023-06-19T08:00:08;28.20;70.50
21425;DHT22;10873;51.132;16.848;2023-06-19T08:03:03;28.80;70.20
21425;DHT22;10873;51.132;16.848;2023-06-19T08:06:03;29.30;69.90
21425;DHT22;10873;51.132;16.848;2023-06-19T08:09:29;29.80;69.50
21425;DHT22;10873;51.132;16.848;2023-06-19T08:12:42;30.30;69.20
21425;DHT22;10873;51.132;16.848;2023-06-19T08:18:56;31.20;68.00
21425;DHT22;10873;51.132;16.848;2023-06-19T08:22:06;31.60;67.30
21425;DHT22;10873;51.132;16.848;2023-06-19T08:24:53;31.90;66.40
21425;DHT22;10873;51.132;16.848;2023-06-19T08:31:18;32.50;64.60
21425;DHT22;10873;51.132;16.848;2023-06-19T08:34:26;32.70;64.00
21425;DHT22;10873;51.132;16.848;2023-06-19T08:37:33;33.00;63.30
21425;DHT22;10873;51.132;16.848;2023-06-19T08:40:22;33.30;64.70
21425;DHT22;10873;51.132;16.848;2023-06-19T08:43:09;33.20;64.00
21425;DHT22;10873;51.132;16.848;2023-06-19T08:45:54;33.00;64.60
21425;DHT22;10873;51.132;16.848;2023-06-19T08:48:43;33.10;64.40
21425;DHT22;10873;51.132;16.848;2023-06-19T08:51:19;33.30;63.70
21425;DHT22;10873;51.132;16.848;2023-06-19T08:54:10;33.50;64.40
21425;DHT22;10873;51.132;16.848;2023-06-19T08:57:40;33.50;62.60
21425;DHT22;10873;51.132;16.848;2023-06-19T09:00:28;33.20;61.40
21425;DHT22;10873;51.132;16.848;2023-06-19T09:03:49;33.00;61.70
21425;DHT22;10873;51.132;16.848;2023-06-19T09:06:50;32.80;61.50
21425;DHT22;10873;51.132;16.848;2023-06-19T09:09:59;32.50;61.70
21425;DHT22;10873;51.132;16.848;2023-06-19T09:12:58;32.30;60.70
21425;DHT22;10873;51.132;16.848;2023-06-19T09:19:01;32.00;59.80
21425;DHT22;10873;51.132;16.848;2023-06-19T09:21:53;31.80;59.50
21425;DHT22;10873;51.132;16.848;2023-06-19T09:25:05;31.70;59.30
21425;DHT22;10873;51.132;16.848;2023-06-19T09:28:19;31.60;58.80
21425;DHT22;10873;51.132;16.848;2023-06-19T09:31:19;31.50;58.80
21425;DHT22;10873;51.132;16.848;2023-06-19T09:41:33;31.20;58.10
21425;DHT22;10873;51.132;16.848;2023-06-19T09:45:16;31.10;57.60
21425;DHT22;10873;51.132;16.848;2023-06-19T09:49:02;31.00;57.80
21425;DHT22;10873;51.132;16.848;2023-06-19T10:15:41;30.50;57.10
21425;DHT22;10873;51.132;16.848;2023-06-19T10:19:20;30.50;56.90
21425;DHT22;10873;51.132;16.848;2023-06-19T10:25:56;30.40;56.70
21425;DHT22;10873;51.132;16.848;2023-06-19T10:28:49;30.40;56.70
21425;DHT22;10873;51.132;16.848;2023-06-19T10:31:57;30.40;56.70
21425;DHT22;10873;51.132;16.848;2023-06-19T10:35:10;30.40;56.50
21425;DHT22;10873;51.132;16.848;2023-06-19T10:38:28;30.30;56.30
21425;DHT22;10873;51.132;16.848;2023-06-19T10:41:16;30.30;56.10
21425;DHT22;10873;51.132;16.848;2023-06-19T10:44:06;30.30;56.20
21425;DHT22;10873;51.132;16.848;2023-06-19T10:46:46;30.30;56.10
21425;DHT22;10873;51.132;16.848;2023-06-19T10:49:23;30.30;56.20
21425;DHT22;10873;51.132;16.848;2023-06-19T10:52:09;30.30;56.30
21425;DHT22;10873;51.132;16.848;2023-06-19T10:54:40;30.30;56.30
21425;DHT22;10873;51.132;16.848;2023-06-19T10:57:15;30.30;56.30
21425;DHT22;10873;51.132;16.848;2023-06-19T10:59:59;30.30;56.00
21425;DHT22;10873;51.132;16.848;2023-06-19T11:02:39;30.20;56.00
21425;DHT22;10873;51.132;16.848;2023-06-19T11:05:18;30.20;56.00
21425;DHT22;10873;51.132;16.848;2023-06-19T11:08:00;30.20;56.10
21425;DHT22;10873;51.132;16.848;2023-06-19T11:10:39;30.20;55.90
21425;DHT22;10873;51.132;16.848;2023-06-19T11:13:17;30.20;55.70
21425;DHT22;10873;51.132;16.848;2023-06-19T11:15:48;30.20;55.60
21425;DHT22;10873;51.132;16.848;2023-06-19T11:18:23;30.20;55.70
21425;DHT22;10873;51.132;16.848;2023-06-19T11:20:59;30.20;55.70
21425;DHT22;10873;51.132;16.848;2023-06-19T11:23:37;30.20;55.80
21425;DHT22;10873;51.132;16.848;2023-06-19T11:26:20;30.10;55.80
21425;DHT22;10873;51.132;16.848;2023-06-19T11:28:53;30.10;56.00
21425;DHT22;10873;51.132;16.848;2023-06-19T11:31:34;30.10;56.00
21425;DHT22;10873;51.132;16.848;2023-06-19T11:34:31;30.10;55.90
21425;DHT22;10873;51.132;16.848;2023-06-19T11:37:18;30.10;55.70
21425;DHT22;10873;51.132;16.848;2023-06-19T11:39:53;30.10;55.80
21425;DHT22;10873;51.132;16.848;2023-06-19T11:42:28;30.00;55.90
21425;DHT22;10873;51.132;16.848;2023-06-19T11:45:01;30.00;56.50
21425;DHT22;10873;51.132;16.848;2023-06-19T11:47:45;30.00;57.00
21425;DHT22;10873;51.132;16.848;2023-06-19T11:50:18;30.00;57.00
21425;DHT22;10873;51.132;16.848;2023-06-19T11:52:52;30.00;57.00
21425;DHT22;10873;51.132;16.848;2023-06-19T11:55:24;30.00;57.10
21425;DHT22;10873;51.132;16.848;2023-06-19T11:57:53;29.90;57.10
21425;DHT22;10873;51.132;16.848;2023-06-19T12:00:23;29.90;57.10
21425;DHT22;10873;51.132;16.848;2023-06-19T12:02:55;29.90;57.20
21425;DHT22;10873;51.132;16.848;2023-06-19T12:05:30;29.90;57.20
21425;DHT22;10873;51.132;16.848;2023-06-19T12:08:10;29.90;57.20
21425;DHT22;10873;51.132;16.848;2023-06-19T12:10:43;29.90;57.30
21425;DHT22;10873;51.132;16.848;2023-06-19T12:15:56;29.80;57.30
21425;DHT22;10873;51.132;16.848;2023-06-19T12:18:27;29.80;57.30
21425;DHT22;10873;51.132;16.848;2023-06-19T12:21:05;29.80;57.50
21425;DHT22;10873;51.132;16.848;2023-06-19T12:23:37;29.80;57.40
21425;DHT22;10873;51.132;16.848;2023-06-19T12:26:11;29.80;57.50
21425;DHT22;10873;51.132;16.848;2023-06-19T12:28:38;29.80;57.50
21425;DHT22;10873;51.132;16.848;2023-06-19T12:31:23;29.80;57.50
21425;DHT22;10873;51.132;16.848;2023-06-19T12:33:54;29.80;57.40
21425;DHT22;10873;51.132;16.848;2023-06-19T12:36:44;29.70;57.20
21425;DHT22;10873;51.132;16.848;2023-06-19T12:39:20;29.70;57.30
21425;DHT22;10873;51.132;16.848;2023-06-19T12:42:13;29.70;57.40
21425;DHT22;10873;51.132;16.848;2023-06-19T12:44:52;29.70;57.50
21425;DHT22;10873;51.132;16.848;2023-06-19T12:47:53;29.70;57.60
21425;DHT22;10873;51.132;16.848;2023-06-19T12:50:27;29.60;57.60
21425;DHT22;10873;51.132;16.848;2023-06-19T12:53:12;29.60;57.50
21425;DHT22;10873;51.132;16.848;2023-06-19T12:55:50;29.60;57.50
21425;DHT22;10873;51.132;16.848;2023-06-19T12:58:26;29.60;57.60
21425;DHT22;10873;51.132;16.848;2023-06-19T13:01:11;29.60;57.60
21425;DHT22;10873;51.132;16.848;2023-06-19T13:04:15;29.60;57.70
21425;DHT22;10873;51.132;16.848;2023-06-19T13:08:02;29.60;57.70
21425;DHT22;10873;51.132;16.848;2023-06-19T13:11:09;29.60;57.80
21425;DHT22;10873;51.132;16.848;2023-06-19T13:18:38;29.60;57.80
21425;DHT22;10873;51.132;16.848;2023-06-19T14:03:13;29.50;57.20
21425;DHT22;10873;51.132;16.848;2023-06-19T14:09:31;29.50;57.10
21425;DHT22;10873;51.132;16.848;2023-06-19T14:12:15;29.50;57.10
21425;DHT22;10873;51.132;16.848;2023-06-19T14:14:56;29.50;57.20
21425;DHT22;10873;51.132;16.848;2023-06-19T14:17:27;29.50;57.40
21425;DHT22;10873;51.132;16.848;2023-06-19T14:20:44;29.50;57.90
21425;DHT22;10873;51.132;16.848;2023-06-19T14:23:24;29.50;58.20
21425;DHT22;10873;51.132;16.848;2023-06-19T14:25:58;29.50;58.30
21425;DHT22;10873;51.132;16.848;2023-06-19T14:28:36;29.50;58.50
21425;DHT22;10873;51.132;16.848;2023-06-19T14:31:50;29.50;58.60
21425;DHT22;10873;51.132;16.848;2023-06-19T14:34:32;29.50;58.70
21425;DHT22;10873;51.132;16.848;2023-06-19T14:37:38;29.50;58.60
21425;DHT22;10873;51.132;16.848;2023-06-19T14:40:22;29.50;58.50
21425;DHT22;10873;51.132;16.848;2023-06-19T14:43:11;29.50;58.50
21425;DHT22;10873;51.132;16.848;2023-06-19T14:45:51;29.50;58.50
21425;DHT22;10873;51.132;16.848;2023-06-19T14:49:00;29.50;58.40
21425;DHT22;10873;51.132;16.848;2023-06-19T14:51:51;29.50;58.40
21425;DHT22;10873;51.132;16.848;2023-06-19T14:54:36;29.50;58.40
21425;DHT22;10873;51.132;16.848;2023-06-19T14:57:42;29.40;58.30
21425;DHT22;10873;51.132;16.848;2023-06-19T15:00:39;29.50;58.40
21425;DHT22;10873;51.132;16.848;2023-06-19T15:03:14;29.40;58.30
21425;DHT22;10873;51.132;16.848;2023-06-19T15:06:26;29.40;58.30
21425;DHT22;10873;51.132;16.848;2023-06-19T15:09:02;29.40;58.30
21425;DHT22;10873;51.132;16.848;2023-06-19T15:11:51;29.40;58.20
21425;DHT22;10873;51.132;16.848;2023-06-19T15:14:30;29.40;58.20
21425;DHT22;10873;51.132;16.848;2023-06-19T15:17:09;29.40;58.10
21425;DHT22;10873;51.132;16.848;2023-06-19T15:19:47;29.40;57.90
21425;DHT22;10873;51.132;16.848;2023-06-19T15:22:40;29.40;58.30
21425;DHT22;10873;51.132;16.848;2023-06-19T15:25:26;29.40;57.40
21425;DHT22;10873;51.132;16.848;2023-06-19T15:28:00;29.40;57.40
21425;DHT22;10873;51.132;16.848;2023-06-19T15:30:51;29.30;57.20
21425;DHT22;10873;51.132;16.848;2023-06-19T15:33:22;29.30;57.30
21425;DHT22;10873;51.132;16.848;2023-06-19T15:36:13;29.30;57.40
21425;DHT22;10873;51.132;16.848;2023-06-19T15:38:42;29.30;57.40
21425;DHT22;10873;51.132;16.848;2023-06-19T15:41:16;29.20;57.40
21425;DHT22;10873;51.132;16.848;2023-06-19T15:44:13;29.20;57.50
21425;DHT22;10873;51.132;16.848;2023-06-19T15:46:49;29.20;57.50
21425;DHT22;10873;51.132;16.848;2023-06-19T15:49:19;29.20;57.60
21425;DHT22;10873;51.132;16.848;2023-06-19T15:52:02;29.10;57.60
21425;DHT22;10873;51.132;16.848;2023-06-19T15:55:07;29.10;57.60
21425;DHT22;10873;51.132;16.848;2023-06-19T15:57:45;29.10;57.70
21425;DHT22;10873;51.132;16.848;2023-06-19T16:00:21;29.10;57.80
21425;DHT22;10873;51.132;16.848;2023-06-19T16:03:09;29.10;57.80
21425;DHT22;10873;51.132;16.848;2023-06-19T16:05:47;29.00;57.80
21425;DHT22;10873;51.132;16.848;2023-06-19T16:08:48;29.00;57.80
21425;DHT22;10873;51.132;16.848;2023-06-19T16:11:29;29.00;57.90
21425;DHT22;10873;51.132;16.848;2023-06-19T16:14:13;29.00;57.90
21425;DHT22;10873;51.132;16.848;2023-06-19T16:17:29;29.00;58.00
21425;DHT22;10873;51.132;16.848;2023-06-19T16:20:32;28.90;58.00
21425;DHT22;10873;51.132;16.848;2023-06-19T16:23:49;28.90;58.10
21425;DHT22;10873;51.132;16.848;2023-06-19T16:26:46;28.90;58.20
21425;DHT22;10873;51.132;16.848;2023-06-19T16:29:51;28.90;58.30
21425;DHT22;10873;51.132;16.848;2023-06-19T16:33:06;28.90;58.30
21425;DHT22;10873;51.132;16.848;2023-06-19T16:35:42;28.80;58.30
21425;DHT22;10873;51.132;16.848;2023-06-19T16:38:22;28.80;58.40
21425;DHT22;10873;51.132;16.848;2023-06-19T16:40:55;28.80;58.40
21425;DHT22;10873;51.132;16.848;2023-06-19T16:43:58;28.80;58.50
21425;DHT22;10873;51.132;16.848;2023-06-19T16:46:33;28.80;58.50
21425;DHT22;10873;51.132;16.848;2023-06-19T16:49:17;28.80;58.50
21425;DHT22;10873;51.132;16.848;2023-06-19T16:52:10;28.80;58.60
21425;DHT22;10873;51.132;16.848;2023-06-19T16:54:53;28.80;58.70
21425;DHT22;10873;51.132;16.848;2023-06-19T16:57:34;28.80;58.90
21425;DHT22;10873;51.132;16.848;2023-06-19T17:03:10;28.80;59.00
21425;DHT22;10873;51.132;16.848;2023-06-19T17:05:58;28.70;59.00
21425;DHT22;10873;51.132;16.848;2023-06-19T17:08:36;28.70;59.00
21425;DHT22;10873;51.132;16.848;2023-06-19T17:11:18;28.70;59.10
21425;DHT22;10873;51.132;16.848;2023-06-19T17:13:50;28.70;59.20
21425;DHT22;10873;51.132;16.848;2023-06-19T17:16:32;28.70;59.20
21425;DHT22;10873;51.132;16.848;2023-06-19T17:19:26;28.70;59.30
21425;DHT22;10873;51.132;16.848;2023-06-19T17:22:11;28.70;59.40
21425;DHT22;10873;51.132;16.848;2023-06-19T17:25:06;28.70;59.40
21425;DHT22;10873;51.132;16.848;2023-06-19T17:27:43;28.70;59.40
21425;DHT22;10873;51.132;16.848;2023-06-19T17:30:28;28.70;60.10
21425;DHT22;10873;51.132;16.848;2023-06-19T17:33:02;28.70;59.50
21425;DHT22;10873;51.132;16.848;2023-06-19T17:38:45;28.70;59.70
21425;DHT22;10873;51.132;16.848;2023-06-19T17:41:14;28.70;59.60
21425;DHT22;10873;51.132;16.848;2023-06-19T17:43:45;28.70;59.70
21425;DHT22;10873;51.132;16.848;2023-06-19T17:46:34;28.70;59.70
21425;DHT22;10873;51.132;16.848;2023-06-19T17:49:11;28.70;59.70
21425;DHT22;10873;51.132;16.848;2023-06-19T17:51:48;28.70;59.70
21425;DHT22;10873;51.132;16.848;2023-06-19T18:00:51;28.70;59.70
21425;DHT22;10873;51.132;16.848;2023-06-19T18:03:52;28.70;59.60
21425;DHT22;10873;51.132;16.848;2023-06-19T18:07:00;28.70;59.60
21425;DHT22;10873;51.132;16.848;2023-06-19T18:09:52;28.70;59.70
21425;DHT22;10873;51.132;16.848;2023-06-19T18:12:50;28.70;59.90
21425;DHT22;10873;51.132;16.848;2023-06-19T18:15:50;28.70;60.80
21425;DHT22;10873;51.132;16.848;2023-06-19T18:18:49;28.70;59.90
21425;DHT22;10873;51.132;16.848;2023-06-19T18:22:25;28.70;59.90
21425;DHT22;10873;51.132;16.848;2023-06-19T18:25:23;28.70;60.00
21425;DHT22;10873;51.132;16.848;2023-06-19T18:31:12;28.70;60.30
21425;DHT22;10873;51.132;16.848;2023-06-19T18:33:59;28.70;60.40
21425;DHT22;10873;51.132;16.848;2023-06-19T18:37:26;28.70;60.60
21425;DHT22;10873;51.132;16.848;2023-06-19T18:40:58;28.60;60.60
21425;DHT22;10873;51.132;16.848;2023-06-19T18:44:04;28.60;60.70
21425;DHT22;10873;51.132;16.848;2023-06-19T18:46:46;28.60;60.80
21425;DHT22;10873;51.132;16.848;2023-06-19T18:49:33;28.60;60.90
21425;DHT22;10873;51.132;16.848;2023-06-19T18:52:34;28.60;60.90
21425;DHT22;10873;51.132;16.848;2023-06-19T18:55:16;28.60;61.10
21425;DHT22;10873;51.132;16.848;2023-06-19T18:58:03;28.60;61.20
21425;DHT22;10873;51.132;16.848;2023-06-19T19:01:36;28.50;61.20
21425;DHT22;10873;51.132;16.848;2023-06-19T19:07:10;28.50;61.50
21425;DHT22;10873;51.132;16.848;2023-06-19T19:10:12;28.50;61.50
21425;DHT22;10873;51.132;16.848;2023-06-19T19:16:39;28.40;61.60
21425;DHT22;10873;51.132;16.848;2023-06-19T19:19:15;28.40;61.60
21425;DHT22;10873;51.132;16.848;2023-06-19T19:25:48;28.40;61.80
21425;DHT22;10873;51.132;16.848;2023-06-19T19:28:45;28.40;61.90
21425;DHT22;10873;51.132;16.848;2023-06-19T19:47:55;28.30;62.80
21425;DHT22;10873;51.132;16.848;2023-06-19T19:55:05;28.30;63.20
21425;DHT22;10873;51.132;16.848;2023-06-19T19:58:18;28.30;63.30
21425;DHT22;10873;51.132;16.848;2023-06-19T20:01:24;28.20;63.30
21425;DHT22;10873;51.132;16.848;2023-06-19T20:27:00;28.10;64.50
21425;DHT22;10873;51.132;16.848;2023-06-19T20:29:40;28.20;64.60
21425;DHT22;10873;51.132;16.848;2023-06-19T20:32:52;28.10;64.60
21425;DHT22;10873;51.132;16.848;2023-06-19T20:35:54;28.10;64.60
21425;DHT22;10873;51.132;16.848;2023-06-19T20:38:34;28.10;64.60
21425;DHT22;10873;51.132;16.848;2023-06-19T20:41:45;28.10;64.70
21425;DHT22;10873;51.132;16.848;2023-06-19T20:44:48;28.10;64.60
21425;DHT22;10873;51.132;16.848;2023-06-19T20:47:38;28.10;64.70
21425;DHT22;10873;51.132;16.848;2023-06-19T20:50:44;28.10;64.60
21425;DHT22;10873;51.132;16.848;2023-06-19T20:53:47;28.10;64.50
21425;DHT22;10873;51.132;16.848;2023-06-19T20:59:24;28.10;65.20
21425;DHT22;10873;51.132;16.848;2023-06-19T21:02:24;28.00;65.40
21425;DHT22;10873;51.132;16.848;2023-06-19T21:05:24;28.00;66.40
21425;DHT22;10873;51.132;16.848;2023-06-19T21:08:36;28.00;65.80
21425;DHT22;10873;51.132;16.848;2023-06-19T21:14:39;28.00;65.60
21425;DHT22;10873;51.132;16.848;2023-06-19T21:17:35;28.00;64.90
21425;DHT22;10873;51.132;16.848;2023-06-19T21:20:35;28.00;64.30
21425;DHT22;10873;51.132;16.848;2023-06-19T21:23:19;27.90;63.20
21425;DHT22;10873;51.132;16.848;2023-06-19T21:26:14;27.90;62.30
21425;DHT22;10873;51.132;16.848;2023-06-19T21:29:40;27.90;61.50
21425;DHT22;10873;51.132;16.848;2023-06-19T21:39:38;27.80;60.50
21425;DHT22;10873;51.132;16.848;2023-06-19T22:14:19;27.70;62.00
21425;DHT22;10873;51.132;16.848;2023-06-19T22:45:15;27.70;63.90
21425;DHT22;10873;51.132;16.848;2023-06-19T22:47:42;27.70;63.10
21425;DHT22;10873;51.132;16.848;2023-06-19T22:50:09;27.70;63.20
21425;DHT22;10873;51.132;16.848;2023-06-19T22:52:36;27.60;63.20
21425;DHT22;10873;51.132;16.848;2023-06-19T22:55:03;27.70;63.20
21425;DHT22;10873;51.132;16.848;2023-06-19T22:57:29;27.60;63.20
21425;DHT22;10873;51.132;16.848;2023-06-19T23:00:00;27.70;63.30
21425;DHT22;10873;51.132;16.848;2023-06-19T23:02:27;27.70;63.30
21425;DHT22;10873;51.132;16.848;2023-06-19T23:04:53;27.60;63.30